<?xml version="1.0" encoding="UTF-8" standalone="no" ?>
<gpx xmlns="http://www.topografix.com/GPX/1/1" xmlns:xsi="http://www.w3.org/2001/XMLSchema-instance" xsi:schemaLocation="http://www.topografix.com/GPX/1/1 http://www.topografix.com/GPX/1/1/gpx.xsd" version="1.1" creator="VisuGPX - https://www.visugpx.com">
  <metadata>
    <name>Suède</name>
  </metadata>
  <trk>
    <name><![CDATA[Tour d'Europe: étape 106]]></name>
    <trkseg>
      <trkpt lat="59.85799" lon="17.61954">
        <ele>50.996864</ele>
        <time>2020-10-12T07:39:02.332Z</time>
      </trkpt>
      <trkpt lat="59.85802" lon="17.62356">
        <ele>52.496229</ele>
        <time>2020-10-12T07:42:00.322Z</time>
      </trkpt>
      <trkpt lat="59.85848" lon="17.62705">
        <ele>60.463829</ele>
        <time>2020-10-12T07:43:18.366Z</time>
      </trkpt>
      <trkpt lat="59.85987" lon="17.63019">
        <ele>62.315508</ele>
        <time>2020-10-12T07:44:14.311Z</time>
      </trkpt>
      <trkpt lat="59.8588" lon="17.63366">
        <ele>54.933956</ele>
        <time>2020-10-12T07:45:03.351Z</time>
      </trkpt>
      <trkpt lat="59.85809" lon="17.63746">
        <ele>47.509</ele>
        <time>2020-10-12T07:46:05.324Z</time>
      </trkpt>
      <trkpt lat="59.8563" lon="17.64015">
        <ele>51.605459</ele>
        <time>2020-10-12T07:47:00.321Z</time>
      </trkpt>
      <trkpt lat="59.85445" lon="17.64291">
        <ele>46.264012</ele>
        <time>2020-10-12T07:48:44.353Z</time>
      </trkpt>
      <trkpt lat="59.85265" lon="17.64477">
        <ele>35.970012</ele>
        <time>2020-10-12T07:49:30.318Z</time>
      </trkpt>
      <trkpt lat="59.85298" lon="17.64805">
        <ele>42.156136</ele>
        <time>2020-10-12T07:50:27.333Z</time>
      </trkpt>
      <trkpt lat="59.85438" lon="17.65109">
        <ele>48.08047</ele>
        <time>2020-10-12T07:51:25.352Z</time>
      </trkpt>
      <trkpt lat="59.85604" lon="17.65424">
        <ele>42.903751</ele>
        <time>2020-10-12T07:52:28.365Z</time>
      </trkpt>
      <trkpt lat="59.85567" lon="17.65708">
        <ele>41.586435</ele>
        <time>2020-10-12T07:53:33.323Z</time>
      </trkpt>
      <trkpt lat="59.85395" lon="17.66037">
        <ele>43.362134</ele>
        <time>2020-10-12T07:54:31.354Z</time>
      </trkpt>
      <trkpt lat="59.85276" lon="17.66441">
        <ele>45.360453</ele>
        <time>2020-10-12T07:55:29.381Z</time>
      </trkpt>
      <trkpt lat="59.85129" lon="17.66643">
        <ele>43.700573</ele>
        <time>2020-10-12T07:56:28.319Z</time>
      </trkpt>
      <trkpt lat="59.84924" lon="17.66766">
        <ele>43.749399</ele>
        <time>2020-10-12T07:57:22.310Z</time>
      </trkpt>
      <trkpt lat="59.84823" lon="17.67122">
        <ele>43.634496</ele>
        <time>2020-10-12T07:58:07.319Z</time>
      </trkpt>
      <trkpt lat="59.84671" lon="17.67472">
        <ele>42.689516</ele>
        <time>2020-10-12T07:59:05.380Z</time>
      </trkpt>
      <trkpt lat="59.8453" lon="17.67667">
        <ele>35.416795</ele>
        <time>2020-10-12T08:00:09.347Z</time>
      </trkpt>
      <trkpt lat="59.84467" lon="17.68151">
        <ele>32.116915</ele>
        <time>2020-10-12T08:01:09.341Z</time>
      </trkpt>
      <trkpt lat="59.84398" lon="17.68596">
        <ele>35.195013</ele>
        <time>2020-10-12T08:02:04.339Z</time>
      </trkpt>
      <trkpt lat="59.84343" lon="17.69033">
        <ele>33.778492</ele>
        <time>2020-10-12T08:03:28.321Z</time>
      </trkpt>
      <trkpt lat="59.84112" lon="17.68989">
        <ele>31.672375</ele>
        <time>2020-10-12T08:04:21.346Z</time>
      </trkpt>
      <trkpt lat="59.83866" lon="17.69007">
        <ele>30.043503</ele>
        <time>2020-10-12T08:05:21.326Z</time>
      </trkpt>
      <trkpt lat="59.83631" lon="17.69193">
        <ele>30.618676</ele>
        <time>2020-10-12T08:06:22.336Z</time>
      </trkpt>
      <trkpt lat="59.83408" lon="17.69334">
        <ele>31.864932</ele>
        <time>2020-10-12T08:07:22.321Z</time>
      </trkpt>
      <trkpt lat="59.8324" lon="17.69679">
        <ele>33.118232</ele>
        <time>2020-10-12T08:08:22.332Z</time>
      </trkpt>
      <trkpt lat="59.83127" lon="17.70068">
        <ele>33.737855</ele>
        <time>2020-10-12T08:09:15.328Z</time>
      </trkpt>
      <trkpt lat="59.8301" lon="17.70513">
        <ele>34.012099</ele>
        <time>2020-10-12T08:10:13.312Z</time>
      </trkpt>
      <trkpt lat="59.82918" lon="17.70866">
        <ele>33.725642</ele>
        <time>2020-10-12T08:10:57.353Z</time>
      </trkpt>
      <trkpt lat="59.82846" lon="17.7131">
        <ele>31.141831</ele>
        <time>2020-10-12T08:11:50.340Z</time>
      </trkpt>
      <trkpt lat="59.82771" lon="17.7176">
        <ele>31.541967</ele>
        <time>2020-10-12T08:12:45.329Z</time>
      </trkpt>
      <trkpt lat="59.82693" lon="17.72202">
        <ele>32.536918</ele>
        <time>2020-10-12T08:13:38.347Z</time>
      </trkpt>
      <trkpt lat="59.8264" lon="17.72651">
        <ele>32.072265</ele>
        <time>2020-10-12T08:14:30.345Z</time>
      </trkpt>
      <trkpt lat="59.82572" lon="17.73053">
        <ele>30.817821</ele>
        <time>2020-10-12T08:15:20.320Z</time>
      </trkpt>
      <trkpt lat="59.82377" lon="17.73319">
        <ele>33.23228</ele>
        <time>2020-10-12T08:16:20.333Z</time>
      </trkpt>
      <trkpt lat="59.82207" lon="17.73548">
        <ele>39.633467</ele>
        <time>2020-10-12T08:17:33.363Z</time>
      </trkpt>
      <trkpt lat="59.82035" lon="17.7377">
        <ele>49.06811</ele>
        <time>2020-10-12T08:19:02.331Z</time>
      </trkpt>
      <trkpt lat="59.81848" lon="17.7399">
        <ele>48.595966</ele>
        <time>2020-10-12T08:19:56.328Z</time>
      </trkpt>
      <trkpt lat="59.81653" lon="17.74214">
        <ele>46.792609</ele>
        <time>2020-10-12T08:20:47.333Z</time>
      </trkpt>
      <trkpt lat="59.81457" lon="17.74603">
        <ele>37.994767</ele>
        <time>2020-10-12T08:21:27.324Z</time>
      </trkpt>
      <trkpt lat="59.81296" lon="17.74939">
        <ele>32.474752</ele>
        <time>2020-10-12T08:22:07.328Z</time>
      </trkpt>
      <trkpt lat="59.81151" lon="17.75245">
        <ele>32.402191</ele>
        <time>2020-10-12T08:22:49.357Z</time>
      </trkpt>
      <trkpt lat="59.81018" lon="17.75516">
        <ele>32.800992</ele>
        <time>2020-10-12T08:23:29.348Z</time>
      </trkpt>
      <trkpt lat="59.80806" lon="17.7565">
        <ele>36.199144</ele>
        <time>2020-10-12T08:24:22.339Z</time>
      </trkpt>
      <trkpt lat="59.80615" lon="17.75777">
        <ele>35.253896</ele>
        <time>2020-10-12T08:25:22.325Z</time>
      </trkpt>
      <trkpt lat="59.8052" lon="17.76165">
        <ele>44.466202</ele>
        <time>2020-10-12T08:26:18.374Z</time>
      </trkpt>
      <trkpt lat="59.80479" lon="17.76574">
        <ele>39.777094</ele>
        <time>2020-10-12T08:27:02.336Z</time>
      </trkpt>
      <trkpt lat="59.80326" lon="17.76973">
        <ele>31.927562</ele>
        <time>2020-10-12T08:28:01.326Z</time>
      </trkpt>
      <trkpt lat="59.80154" lon="17.77332">
        <ele>34.87996</ele>
        <time>2020-10-12T08:29:01.318Z</time>
      </trkpt>
      <trkpt lat="59.79979" lon="17.77673">
        <ele>42.52743</ele>
        <time>2020-10-12T08:30:01.348Z</time>
      </trkpt>
      <trkpt lat="59.79809" lon="17.77944">
        <ele>47.076255</ele>
        <time>2020-10-12T08:31:04.370Z</time>
      </trkpt>
      <trkpt lat="59.7969" lon="17.7828">
        <ele>49.206927</ele>
        <time>2020-10-12T08:31:49.330Z</time>
      </trkpt>
      <trkpt lat="59.79589" lon="17.78599">
        <ele>45.253446</ele>
        <time>2020-10-12T08:32:29.351Z</time>
      </trkpt>
      <trkpt lat="59.79448" lon="17.78866">
        <ele>42.575995</ele>
        <time>2020-10-12T08:33:11.326Z</time>
      </trkpt>
      <trkpt lat="59.79314" lon="17.78587">
        <ele>54.954323</ele>
        <time>2020-10-12T08:35:19.324Z</time>
      </trkpt>
      <trkpt lat="59.79122" lon="17.7848">
        <ele>63.364202</ele>
        <time>2020-10-12T08:36:42.382Z</time>
      </trkpt>
      <trkpt lat="59.78924" lon="17.78539">
        <ele>58.588511</ele>
        <time>2020-10-12T08:37:41.342Z</time>
      </trkpt>
      <trkpt lat="59.78749" lon="17.78777">
        <ele>60.202015</ele>
        <time>2020-10-12T08:38:23.326Z</time>
      </trkpt>
      <trkpt lat="59.78548" lon="17.78818">
        <ele>61.663799</ele>
        <time>2020-10-12T08:39:23.320Z</time>
      </trkpt>
      <trkpt lat="59.78309" lon="17.78633">
        <ele>52.650961</ele>
        <time>2020-10-12T08:40:14.360Z</time>
      </trkpt>
      <trkpt lat="59.78109" lon="17.78486">
        <ele>48.790968</ele>
        <time>2020-10-12T08:40:55.342Z</time>
      </trkpt>
      <trkpt lat="59.77912" lon="17.78319">
        <ele>46.91221</ele>
        <time>2020-10-12T08:41:35.356Z</time>
      </trkpt>
      <trkpt lat="59.77763" lon="17.78015">
        <ele>47.827823</ele>
        <time>2020-10-12T08:42:24.344Z</time>
      </trkpt>
      <trkpt lat="59.77594" lon="17.7774">
        <ele>55.751361</ele>
        <time>2020-10-12T08:43:41.326Z</time>
      </trkpt>
      <trkpt lat="59.77426" lon="17.77502">
        <ele>56.150769</ele>
        <time>2020-10-12T08:44:51.334Z</time>
      </trkpt>
      <trkpt lat="59.7724" lon="17.77282">
        <ele>65.138955</ele>
        <time>2020-10-12T08:45:51.369Z</time>
      </trkpt>
      <trkpt lat="59.77077" lon="17.77065">
        <ele>79.862748</ele>
        <time>2020-10-12T08:47:27.347Z</time>
      </trkpt>
      <trkpt lat="59.7686" lon="17.7698">
        <ele>78.654205</ele>
        <time>2020-10-12T08:48:41.329Z</time>
      </trkpt>
      <trkpt lat="59.76601" lon="17.76746">
        <ele>55.799126</ele>
        <time>2020-10-12T08:49:23.333Z</time>
      </trkpt>
      <trkpt lat="59.7642" lon="17.76499">
        <ele>53.255158</ele>
        <time>2020-10-12T08:50:11.318Z</time>
      </trkpt>
      <trkpt lat="59.76206" lon="17.76281">
        <ele>51.888258</ele>
        <time>2020-10-12T08:50:57.343Z</time>
      </trkpt>
      <trkpt lat="59.76" lon="17.7633">
        <ele>52.974467</ele>
        <time>2020-10-12T08:51:39.351Z</time>
      </trkpt>
      <trkpt lat="59.75866" lon="17.76049">
        <ele>54.673185</ele>
        <time>2020-10-12T08:53:03.354Z</time>
      </trkpt>
      <trkpt lat="59.75622" lon="17.76185">
        <ele>49.53414</ele>
        <time>2020-10-12T08:53:43.366Z</time>
      </trkpt>
      <trkpt lat="59.75396" lon="17.76188">
        <ele>52.419913</ele>
        <time>2020-10-12T08:54:23.328Z</time>
      </trkpt>
      <trkpt lat="59.75183" lon="17.76244">
        <ele>56.153992</ele>
        <time>2020-10-12T08:55:27.334Z</time>
      </trkpt>
      <trkpt lat="59.74989" lon="17.76059">
        <ele>51.460899</ele>
        <time>2020-10-12T08:56:24.343Z</time>
      </trkpt>
      <trkpt lat="59.74773" lon="17.76087">
        <ele>43.164646</ele>
        <time>2020-10-12T08:57:09.334Z</time>
      </trkpt>
      <trkpt lat="59.74557" lon="17.76086">
        <ele>49.933018</ele>
        <time>2020-10-12T08:58:18.333Z</time>
      </trkpt>
      <trkpt lat="59.74362" lon="17.76177">
        <ele>57.586359</ele>
        <time>2020-10-12T08:59:49.324Z</time>
      </trkpt>
      <trkpt lat="59.74184" lon="17.75956">
        <ele>50.569512</ele>
        <time>2020-10-12T09:00:47.333Z</time>
      </trkpt>
      <trkpt lat="59.73959" lon="17.75803">
        <ele>44.337106</ele>
        <time>2020-10-12T09:01:29.342Z</time>
      </trkpt>
      <trkpt lat="59.73826" lon="17.76083">
        <ele>42.669304</ele>
        <time>2020-10-12T09:02:24.353Z</time>
      </trkpt>
      <trkpt lat="59.73669" lon="17.76421">
        <ele>39.30521</ele>
        <time>2020-10-12T09:03:05.344Z</time>
      </trkpt>
      <trkpt lat="59.73573" lon="17.76803">
        <ele>37.221902</ele>
        <time>2020-10-12T09:03:50.345Z</time>
      </trkpt>
      <trkpt lat="59.73491" lon="17.77248">
        <ele>41.070715</ele>
        <time>2020-10-12T09:04:50.357Z</time>
      </trkpt>
      <trkpt lat="59.73338" lon="17.77641">
        <ele>42.869096</ele>
        <time>2020-10-12T09:05:35.334Z</time>
      </trkpt>
      <trkpt lat="59.73169" lon="17.7792">
        <ele>47.847446</ele>
        <time>2020-10-12T09:06:24.368Z</time>
      </trkpt>
      <trkpt lat="59.73005" lon="17.78089">
        <ele>56.551979</ele>
        <time>2020-10-12T09:07:49.345Z</time>
      </trkpt>
      <trkpt lat="59.72944" lon="17.78309">
        <ele>51.365247</ele>
        <time>2020-10-12T09:08:48.344Z</time>
      </trkpt>
      <trkpt lat="59.72994" lon="17.7875">
        <ele>46.561304</ele>
        <time>2020-10-12T09:09:58.358Z</time>
      </trkpt>
      <trkpt lat="59.73078" lon="17.78711">
        <ele>43.477461</ele>
        <time>2020-10-12T09:10:45.332Z</time>
      </trkpt>
      <trkpt lat="59.72984" lon="17.78608">
        <ele>40.336774</ele>
        <time>2020-10-12T09:36:56.377Z</time>
      </trkpt>
      <trkpt lat="59.72774" lon="17.78654">
        <ele>41.118618</ele>
        <time>2020-10-12T09:37:57.375Z</time>
      </trkpt>
      <trkpt lat="59.72563" lon="17.78763">
        <ele>46.889108</ele>
        <time>2020-10-12T09:38:55.373Z</time>
      </trkpt>
      <trkpt lat="59.72382" lon="17.78952">
        <ele>48.671346</ele>
        <time>2020-10-12T09:39:46.392Z</time>
      </trkpt>
      <trkpt lat="59.72349" lon="17.79327">
        <ele>52.133736</ele>
        <time>2020-10-12T09:41:25.348Z</time>
      </trkpt>
      <trkpt lat="59.72179" lon="17.796">
        <ele>51.294669</ele>
        <time>2020-10-12T09:42:08.393Z</time>
      </trkpt>
      <trkpt lat="59.71971" lon="17.79712">
        <ele>48.316723</ele>
        <time>2020-10-12T09:43:04.386Z</time>
      </trkpt>
      <trkpt lat="59.71819" lon="17.8003">
        <ele>46.585294</ele>
        <time>2020-10-12T09:43:56.352Z</time>
      </trkpt>
      <trkpt lat="59.71662" lon="17.80225">
        <ele>47.389687</ele>
        <time>2020-10-12T09:45:06.390Z</time>
      </trkpt>
      <trkpt lat="59.7145" lon="17.80175">
        <ele>44.729554</ele>
        <time>2020-10-12T09:45:59.389Z</time>
      </trkpt>
      <trkpt lat="59.71238" lon="17.80234">
        <ele>46.654</ele>
        <time>2020-10-12T09:46:56.382Z</time>
      </trkpt>
      <trkpt lat="59.71022" lon="17.8017">
        <ele>45.912763</ele>
        <time>2020-10-12T09:47:38.367Z</time>
      </trkpt>
      <trkpt lat="59.7082" lon="17.8031">
        <ele>41.89731</ele>
        <time>2020-10-12T09:48:18.394Z</time>
      </trkpt>
      <trkpt lat="59.70644" lon="17.80478">
        <ele>49.234619</ele>
        <time>2020-10-12T09:49:19.333Z</time>
      </trkpt>
      <trkpt lat="59.70464" lon="17.80662">
        <ele>57.956204</ele>
        <time>2020-10-12T09:50:40.343Z</time>
      </trkpt>
      <trkpt lat="59.70272" lon="17.80693">
        <ele>55.011209</ele>
        <time>2020-10-12T09:51:34.352Z</time>
      </trkpt>
      <trkpt lat="59.70092" lon="17.80506">
        <ele>48.78685</ele>
        <time>2020-10-12T09:52:35.360Z</time>
      </trkpt>
      <trkpt lat="59.699" lon="17.80568">
        <ele>47.627038</ele>
        <time>2020-10-12T09:53:16.352Z</time>
      </trkpt>
      <trkpt lat="59.6972" lon="17.80707">
        <ele>48.675428</ele>
        <time>2020-10-12T09:53:57.345Z</time>
      </trkpt>
      <trkpt lat="59.69555" lon="17.80901">
        <ele>49.047992</ele>
        <time>2020-10-12T09:54:37.344Z</time>
      </trkpt>
      <trkpt lat="59.69399" lon="17.81152">
        <ele>50.255103</ele>
        <time>2020-10-12T09:55:19.351Z</time>
      </trkpt>
      <trkpt lat="59.69237" lon="17.81422">
        <ele>49.460908</ele>
        <time>2020-10-12T09:55:59.340Z</time>
      </trkpt>
      <trkpt lat="59.69042" lon="17.81587">
        <ele>45.994393</ele>
        <time>2020-10-12T09:56:39.344Z</time>
      </trkpt>
      <trkpt lat="59.68819" lon="17.81545">
        <ele>42.306357</ele>
        <time>2020-10-12T09:57:20.383Z</time>
      </trkpt>
      <trkpt lat="59.68585" lon="17.81494">
        <ele>43.935592</ele>
        <time>2020-10-12T09:58:20.343Z</time>
      </trkpt>
      <trkpt lat="59.68394" lon="17.81753">
        <ele>47.470327</ele>
        <time>2020-10-12T09:59:14.355Z</time>
      </trkpt>
      <trkpt lat="59.68253" lon="17.82089">
        <ele>54.160925</ele>
        <time>2020-10-12T10:00:09.343Z</time>
      </trkpt>
      <trkpt lat="59.68112" lon="17.82424">
        <ele>57.956871</ele>
        <time>2020-10-12T10:01:03.340Z</time>
      </trkpt>
      <trkpt lat="59.67982" lon="17.8276">
        <ele>64.811127</ele>
        <time>2020-10-12T10:02:18.378Z</time>
      </trkpt>
      <trkpt lat="59.6778" lon="17.82838">
        <ele>72.547135</ele>
        <time>2020-10-12T10:03:44.353Z</time>
      </trkpt>
      <trkpt lat="59.67618" lon="17.83113">
        <ele>64.948555</ele>
        <time>2020-10-12T10:04:43.349Z</time>
      </trkpt>
      <trkpt lat="59.6746" lon="17.83394">
        <ele>61.777014</ele>
        <time>2020-10-12T10:05:36.367Z</time>
      </trkpt>
      <trkpt lat="59.67326" lon="17.83713">
        <ele>69.463613</ele>
        <time>2020-10-12T10:06:28.364Z</time>
      </trkpt>
      <trkpt lat="59.67136" lon="17.83992">
        <ele>59.396216</ele>
        <time>2020-10-12T10:07:08.348Z</time>
      </trkpt>
      <trkpt lat="59.66925" lon="17.84155">
        <ele>58.92324</ele>
        <time>2020-10-12T10:08:10.349Z</time>
      </trkpt>
      <trkpt lat="59.66723" lon="17.84386">
        <ele>64.87537</ele>
        <time>2020-10-12T10:09:03.345Z</time>
      </trkpt>
      <trkpt lat="59.6656" lon="17.84658">
        <ele>49.008684</ele>
        <time>2020-10-12T10:09:52.347Z</time>
      </trkpt>
      <trkpt lat="59.66491" lon="17.85104">
        <ele>44.723267</ele>
        <time>2020-10-12T10:10:35.342Z</time>
      </trkpt>
      <trkpt lat="59.66498" lon="17.85526">
        <ele>47.481011</ele>
        <time>2020-10-12T10:11:25.344Z</time>
      </trkpt>
      <trkpt lat="59.6643" lon="17.8593">
        <ele>45.206727</ele>
        <time>2020-10-12T10:12:16.340Z</time>
      </trkpt>
      <trkpt lat="59.66235" lon="17.86148">
        <ele>46.895564</ele>
        <time>2020-10-12T10:13:13.353Z</time>
      </trkpt>
      <trkpt lat="59.66173" lon="17.86553">
        <ele>51.262803</ele>
        <time>2020-10-12T10:14:23.342Z</time>
      </trkpt>
      <trkpt lat="59.65976" lon="17.86908">
        <ele>43.01033</ele>
        <time>2020-10-12T10:15:04.352Z</time>
      </trkpt>
      <trkpt lat="59.65806" lon="17.86886">
        <ele>42.610407</ele>
        <time>2020-10-12T10:16:03.348Z</time>
      </trkpt>
      <trkpt lat="59.65681" lon="17.87177">
        <ele>41.42674</ele>
        <time>2020-10-12T10:16:44.346Z</time>
      </trkpt>
      <trkpt lat="59.65523" lon="17.87481">
        <ele>42.864822</ele>
        <time>2020-10-12T10:17:32.365Z</time>
      </trkpt>
      <trkpt lat="59.65324" lon="17.87682">
        <ele>43.121112</ele>
        <time>2020-10-12T10:18:36.350Z</time>
      </trkpt>
      <trkpt lat="59.65131" lon="17.87934">
        <ele>40.445867</ele>
        <time>2020-10-12T10:19:19.354Z</time>
      </trkpt>
      <trkpt lat="59.65035" lon="17.88325">
        <ele>42.100271</ele>
        <time>2020-10-12T10:20:04.354Z</time>
      </trkpt>
      <trkpt lat="59.64888" lon="17.88527">
        <ele>48.24931</ele>
        <time>2020-10-12T10:21:19.357Z</time>
      </trkpt>
      <trkpt lat="59.64685" lon="17.88616">
        <ele>47.138853</ele>
        <time>2020-10-12T10:22:06.360Z</time>
      </trkpt>
      <trkpt lat="59.64449" lon="17.88548">
        <ele>40.715936</ele>
        <time>2020-10-12T10:22:47.358Z</time>
      </trkpt>
      <trkpt lat="59.64218" lon="17.88512">
        <ele>37.60644</ele>
        <time>2020-10-12T10:23:45.377Z</time>
      </trkpt>
      <trkpt lat="59.64059" lon="17.88348">
        <ele>49.745101</ele>
        <time>2020-10-12T10:25:09.347Z</time>
      </trkpt>
      <trkpt lat="59.63918" lon="17.88076">
        <ele>48.602886</ele>
        <time>2020-10-12T10:26:13.379Z</time>
      </trkpt>
      <trkpt lat="59.638" lon="17.87691">
        <ele>40.621803</ele>
        <time>2020-10-12T10:26:57.353Z</time>
      </trkpt>
      <trkpt lat="59.63695" lon="17.8729">
        <ele>37.273521</ele>
        <time>2020-10-12T10:27:47.357Z</time>
      </trkpt>
      <trkpt lat="59.63642" lon="17.86827">
        <ele>33.44224</ele>
        <time>2020-10-12T10:28:28.365Z</time>
      </trkpt>
      <trkpt lat="59.63672" lon="17.86447">
        <ele>33.535296</ele>
        <time>2020-10-12T10:29:08.350Z</time>
      </trkpt>
      <trkpt lat="59.63755" lon="17.86045">
        <ele>37.412689</ele>
        <time>2020-10-12T10:32:37.368Z</time>
      </trkpt>
      <trkpt lat="59.63546" lon="17.86054">
        <ele>37.075341</ele>
        <time>2020-10-12T10:33:25.356Z</time>
      </trkpt>
      <trkpt lat="59.63323" lon="17.86053">
        <ele>36.858829</ele>
        <time>2020-10-12T10:34:18.356Z</time>
      </trkpt>
      <trkpt lat="59.63093" lon="17.86033">
        <ele>34.978689</ele>
        <time>2020-10-12T10:35:10.366Z</time>
      </trkpt>
      <trkpt lat="59.62852" lon="17.86026">
        <ele>32.846983</ele>
        <time>2020-10-12T10:36:07.369Z</time>
      </trkpt>
      <trkpt lat="59.62643" lon="17.86086">
        <ele>38.28481</ele>
        <time>2020-10-12T10:37:12.384Z</time>
      </trkpt>
      <trkpt lat="59.62419" lon="17.86063">
        <ele>41.3461</ele>
        <time>2020-10-12T10:38:31.384Z</time>
      </trkpt>
      <trkpt lat="59.62158" lon="17.85978">
        <ele>33.685774</ele>
        <time>2020-10-12T10:39:13.406Z</time>
      </trkpt>
      <trkpt lat="59.61963" lon="17.85883">
        <ele>29.934507</ele>
        <time>2020-10-12T10:39:54.386Z</time>
      </trkpt>
      <trkpt lat="59.61752" lon="17.85923">
        <ele>35.86023</ele>
        <time>2020-10-12T10:41:00.404Z</time>
      </trkpt>
      <trkpt lat="59.6155" lon="17.85945">
        <ele>48.640833</ele>
        <time>2020-10-12T10:42:39.362Z</time>
      </trkpt>
      <trkpt lat="59.61425" lon="17.86242">
        <ele>53.542522</ele>
        <time>2020-10-12T10:44:06.367Z</time>
      </trkpt>
      <trkpt lat="59.61237" lon="17.86435">
        <ele>48.417399</ele>
        <time>2020-10-12T10:44:59.365Z</time>
      </trkpt>
      <trkpt lat="59.61103" lon="17.86752">
        <ele>41.750251</ele>
        <time>2020-10-12T10:45:53.373Z</time>
      </trkpt>
      <trkpt lat="59.60939" lon="17.87081">
        <ele>37.935742</ele>
        <time>2020-10-12T10:46:43.363Z</time>
      </trkpt>
      <trkpt lat="59.60853" lon="17.87505">
        <ele>45.10341</ele>
        <time>2020-10-12T10:47:44.384Z</time>
      </trkpt>
      <trkpt lat="59.60755" lon="17.87846">
        <ele>49.755469</ele>
        <time>2020-10-12T10:48:54.369Z</time>
      </trkpt>
      <trkpt lat="59.60587" lon="17.88088">
        <ele>50.522185</ele>
        <time>2020-10-12T10:49:54.363Z</time>
      </trkpt>
      <trkpt lat="59.60386" lon="17.8819">
        <ele>51.640466</ele>
        <time>2020-10-12T10:50:54.374Z</time>
      </trkpt>
      <trkpt lat="59.60173" lon="17.8822">
        <ele>60.230293</ele>
        <time>2020-10-12T10:52:04.363Z</time>
      </trkpt>
      <trkpt lat="59.59947" lon="17.88188">
        <ele>58.881807</ele>
        <time>2020-10-12T10:53:00.357Z</time>
      </trkpt>
      <trkpt lat="59.59738" lon="17.8841">
        <ele>51.048164</ele>
        <time>2020-10-12T10:53:40.381Z</time>
      </trkpt>
      <trkpt lat="59.59523" lon="17.88743">
        <ele>44.000799</ele>
        <time>2020-10-12T10:54:14.372Z</time>
      </trkpt>
      <trkpt lat="59.59329" lon="17.88983">
        <ele>46.507719</ele>
        <time>2020-10-12T10:55:04.379Z</time>
      </trkpt>
      <trkpt lat="59.5927" lon="17.8934">
        <ele>47.419616</ele>
        <time>2020-10-12T10:56:06.384Z</time>
      </trkpt>
      <trkpt lat="59.59348" lon="17.89643">
        <ele>49.495959</ele>
        <time>2020-10-12T10:57:06.364Z</time>
      </trkpt>
      <trkpt lat="59.59484" lon="17.89991">
        <ele>49.41143</ele>
        <time>2020-10-12T10:58:03.355Z</time>
      </trkpt>
      <trkpt lat="59.59412" lon="17.90202">
        <ele>47.093061</ele>
        <time>2020-10-12T10:59:05.348Z</time>
      </trkpt>
      <trkpt lat="59.59275" lon="17.90454">
        <ele>44.002083</ele>
        <time>2020-10-12T10:59:56.379Z</time>
      </trkpt>
      <trkpt lat="59.59175" lon="17.9098">
        <ele>33.888511</ele>
        <time>2020-10-12T11:00:36.367Z</time>
      </trkpt>
      <trkpt lat="59.59007" lon="17.9125">
        <ele>30.11792</ele>
        <time>2020-10-12T11:01:07.355Z</time>
      </trkpt>
      <trkpt lat="59.58929" lon="17.91642">
        <ele>30.179404</ele>
        <time>2020-10-12T11:01:50.403Z</time>
      </trkpt>
      <trkpt lat="59.58824" lon="17.91997">
        <ele>30.204455</ele>
        <time>2020-10-12T11:02:35.389Z</time>
      </trkpt>
      <trkpt lat="59.58809" lon="17.92423">
        <ele>31.685769</ele>
        <time>2020-10-12T11:03:17.380Z</time>
      </trkpt>
      <trkpt lat="59.58902" lon="17.92729">
        <ele>39.291518</ele>
        <time>2020-10-12T11:04:07.371Z</time>
      </trkpt>
      <trkpt lat="59.5905" lon="17.92997">
        <ele>42.805905</ele>
        <time>2020-10-12T11:05:21.391Z</time>
      </trkpt>
      <trkpt lat="59.59005" lon="17.93369">
        <ele>41.401905</ele>
        <time>2020-10-12T11:06:17.400Z</time>
      </trkpt>
      <trkpt lat="59.58846" lon="17.93677">
        <ele>39.518906</ele>
        <time>2020-10-12T11:07:10.381Z</time>
      </trkpt>
      <trkpt lat="59.58685" lon="17.93996">
        <ele>37.86867</ele>
        <time>2020-10-12T11:07:58.398Z</time>
      </trkpt>
      <trkpt lat="59.58509" lon="17.94278">
        <ele>34.958931</ele>
        <time>2020-10-12T11:08:39.381Z</time>
      </trkpt>
      <trkpt lat="59.58328" lon="17.94625">
        <ele>31.438987</ele>
        <time>2020-10-12T11:09:19.371Z</time>
      </trkpt>
      <trkpt lat="59.58176" lon="17.94987">
        <ele>27.13699</ele>
        <time>2020-10-12T11:09:59.400Z</time>
      </trkpt>
      <trkpt lat="59.58135" lon="17.95427">
        <ele>27.684288</ele>
        <time>2020-10-12T11:10:41.417Z</time>
      </trkpt>
      <trkpt lat="59.58023" lon="17.95783">
        <ele>29.435465</ele>
        <time>2020-10-12T11:11:28.361Z</time>
      </trkpt>
      <trkpt lat="59.57852" lon="17.96033">
        <ele>27.27918</ele>
        <time>2020-10-12T11:12:15.380Z</time>
      </trkpt>
      <trkpt lat="59.57662" lon="17.96266">
        <ele>28.727433</ele>
        <time>2020-10-12T11:13:22.375Z</time>
      </trkpt>
      <trkpt lat="59.57488" lon="17.96345">
        <ele>33.241785</ele>
        <time>2020-10-12T11:14:25.356Z</time>
      </trkpt>
      <trkpt lat="59.57274" lon="17.96401">
        <ele>31.370314</ele>
        <time>2020-10-12T11:15:30.357Z</time>
      </trkpt>
      <trkpt lat="59.57065" lon="17.96461">
        <ele>30.238429</ele>
        <time>2020-10-12T11:16:16.364Z</time>
      </trkpt>
      <trkpt lat="59.56866" lon="17.96394">
        <ele>35.306871</ele>
        <time>2020-10-12T11:17:19.368Z</time>
      </trkpt>
      <trkpt lat="59.56665" lon="17.96342">
        <ele>38.564643</ele>
        <time>2020-10-12T11:18:21.380Z</time>
      </trkpt>
      <trkpt lat="59.5641" lon="17.96035">
        <ele>31.807707</ele>
        <time>2020-10-12T11:19:07.412Z</time>
      </trkpt>
      <trkpt lat="59.56211" lon="17.95825">
        <ele>39.909868</ele>
        <time>2020-10-12T11:20:08.389Z</time>
      </trkpt>
      <trkpt lat="59.56035" lon="17.95625">
        <ele>41.842186</ele>
        <time>2020-10-12T11:21:20.402Z</time>
      </trkpt>
      <trkpt lat="59.55825" lon="17.95564">
        <ele>45.139522</ele>
        <time>2020-10-12T11:22:24.386Z</time>
      </trkpt>
      <trkpt lat="59.55697" lon="17.95223">
        <ele>44.275959</ele>
        <time>2020-10-12T11:23:17.408Z</time>
      </trkpt>
      <trkpt lat="59.55624" lon="17.9482">
        <ele>40.137301</ele>
        <time>2020-10-12T11:24:08.372Z</time>
      </trkpt>
      <trkpt lat="59.55605" lon="17.94386">
        <ele>35.707011</ele>
        <time>2020-10-12T11:24:58.385Z</time>
      </trkpt>
      <trkpt lat="59.55519" lon="17.9395">
        <ele>37.334957</ele>
        <time>2020-10-12T11:25:47.366Z</time>
      </trkpt>
      <trkpt lat="59.55474" lon="17.93535">
        <ele>38.372539</ele>
        <time>2020-10-12T11:26:51.401Z</time>
      </trkpt>
      <trkpt lat="59.55291" lon="17.93283">
        <ele>36.839426</ele>
        <time>2020-10-12T11:27:38.387Z</time>
      </trkpt>
      <trkpt lat="59.55079" lon="17.93132">
        <ele>33.29956</ele>
        <time>2020-10-12T11:28:26.369Z</time>
      </trkpt>
      <trkpt lat="59.54876" lon="17.93234">
        <ele>32.084918</ele>
        <time>2020-10-12T11:29:07.361Z</time>
      </trkpt>
      <trkpt lat="59.54674" lon="17.93349">
        <ele>32.406873</ele>
        <time>2020-10-12T11:29:56.374Z</time>
      </trkpt>
      <trkpt lat="59.54452" lon="17.93478">
        <ele>30.975029</ele>
        <time>2020-10-12T11:30:48.383Z</time>
      </trkpt>
      <trkpt lat="59.54233" lon="17.93609">
        <ele>28.413518</ele>
        <time>2020-10-12T11:31:30.404Z</time>
      </trkpt>
      <trkpt lat="59.54037" lon="17.93611">
        <ele>31.440591</ele>
        <time>2020-10-12T11:32:15.371Z</time>
      </trkpt>
      <trkpt lat="59.5382" lon="17.93565">
        <ele>39.35712</ele>
        <time>2020-10-12T11:33:27.386Z</time>
      </trkpt>
      <trkpt lat="59.53597" lon="17.93522">
        <ele>32.60755</ele>
        <time>2020-10-12T11:34:07.374Z</time>
      </trkpt>
      <trkpt lat="59.53357" lon="17.93649">
        <ele>26.766585</ele>
        <time>2020-10-12T11:35:01.373Z</time>
      </trkpt>
      <trkpt lat="59.53157" lon="17.93895">
        <ele>28.294438</ele>
        <time>2020-10-12T11:35:57.373Z</time>
      </trkpt>
      <trkpt lat="59.52926" lon="17.94059">
        <ele>30.440827</ele>
        <time>2020-10-12T11:36:55.364Z</time>
      </trkpt>
      <trkpt lat="59.52731" lon="17.94149">
        <ele>35.993546</ele>
        <time>2020-10-12T11:37:59.390Z</time>
      </trkpt>
      <trkpt lat="59.52542" lon="17.94277">
        <ele>41.376951</ele>
        <time>2020-10-12T11:39:01.417Z</time>
      </trkpt>
      <trkpt lat="59.52327" lon="17.94456">
        <ele>40.638159</ele>
        <time>2020-10-12T11:40:02.390Z</time>
      </trkpt>
      <trkpt lat="59.52095" lon="17.94558">
        <ele>35.226796</ele>
        <time>2020-10-12T11:40:54.380Z</time>
      </trkpt>
      <trkpt lat="59.51914" lon="17.94776">
        <ele>32.517553</ele>
        <time>2020-10-12T11:41:44.369Z</time>
      </trkpt>
      <trkpt lat="59.51817" lon="17.95127">
        <ele>30.59045</ele>
        <time>2020-10-12T11:42:25.395Z</time>
      </trkpt>
      <trkpt lat="59.51676" lon="17.95468">
        <ele>31.886499</ele>
        <time>2020-10-12T11:43:21.385Z</time>
      </trkpt>
      <trkpt lat="59.51695" lon="17.95793">
        <ele>34.83864</ele>
        <time>2020-10-12T11:44:24.366Z</time>
      </trkpt>
      <trkpt lat="59.51586" lon="17.96098">
        <ele>37.675327</ele>
        <time>2020-10-12T11:45:29.360Z</time>
      </trkpt>
      <trkpt lat="59.51445" lon="17.96392">
        <ele>36.348582</ele>
        <time>2020-10-12T11:46:31.402Z</time>
      </trkpt>
      <trkpt lat="59.51284" lon="17.96637">
        <ele>52.803359</ele>
        <time>2020-10-12T11:47:51.362Z</time>
      </trkpt>
      <trkpt lat="59.51094" lon="17.96923">
        <ele>49.617491</ele>
        <time>2020-10-12T11:48:42.358Z</time>
      </trkpt>
      <trkpt lat="59.50903" lon="17.97181">
        <ele>29.571925</ele>
        <time>2020-10-12T11:49:29.368Z</time>
      </trkpt>
      <trkpt lat="59.50778" lon="17.97498">
        <ele>30.992095</ele>
        <time>2020-10-12T11:50:31.381Z</time>
      </trkpt>
      <trkpt lat="59.50622" lon="17.97327">
        <ele>29.371515</ele>
        <time>2020-10-12T11:51:20.388Z</time>
      </trkpt>
      <trkpt lat="59.50479" lon="17.97014">
        <ele>29.245354</ele>
        <time>2020-10-12T11:52:13.367Z</time>
      </trkpt>
      <trkpt lat="59.50308" lon="17.96775">
        <ele>27.453385</ele>
        <time>2020-10-12T11:52:59.378Z</time>
      </trkpt>
      <trkpt lat="59.50161" lon="17.96455">
        <ele>30.782782</ele>
        <time>2020-10-12T11:53:51.404Z</time>
      </trkpt>
      <trkpt lat="59.5004" lon="17.96122">
        <ele>31.932146</ele>
        <time>2020-10-12T11:54:58.403Z</time>
      </trkpt>
      <trkpt lat="59.49897" lon="17.95814">
        <ele>31.935154</ele>
        <time>2020-10-12T11:56:00.413Z</time>
      </trkpt>
      <trkpt lat="59.49734" lon="17.95575">
        <ele>31.710748</ele>
        <time>2020-10-12T11:57:08.403Z</time>
      </trkpt>
      <trkpt lat="59.49604" lon="17.95211">
        <ele>31.138706</ele>
        <time>2020-10-12T11:58:07.403Z</time>
      </trkpt>
      <trkpt lat="59.49444" lon="17.9493">
        <ele>33.204268</ele>
        <time>2020-10-12T11:59:12.398Z</time>
      </trkpt>
      <trkpt lat="59.49254" lon="17.94801">
        <ele>37.383389</ele>
        <time>2020-10-12T12:00:32.385Z</time>
      </trkpt>
      <trkpt lat="59.49063" lon="17.94661">
        <ele>44.719541</ele>
        <time>2020-10-12T12:02:11.389Z</time>
      </trkpt>
      <trkpt lat="59.48897" lon="17.94407">
        <ele>50.639735</ele>
        <time>2020-10-12T12:03:15.412Z</time>
      </trkpt>
      <trkpt lat="59.48759" lon="17.94099">
        <ele>56.117247</ele>
        <time>2020-10-12T12:04:30.386Z</time>
      </trkpt>
      <trkpt lat="59.48683" lon="17.93598">
        <ele>43.728905</ele>
        <time>2020-10-12T12:05:12.379Z</time>
      </trkpt>
      <trkpt lat="59.48596" lon="17.93196">
        <ele>38.496866</ele>
        <time>2020-10-12T12:06:00.399Z</time>
      </trkpt>
      <trkpt lat="59.48551" lon="17.92939">
        <ele>44.534721</ele>
        <time>2020-10-12T12:07:40.419Z</time>
      </trkpt>
      <trkpt lat="59.48444" lon="17.9271">
        <ele>41.329729</ele>
        <time>2020-10-12T12:08:38.399Z</time>
      </trkpt>
      <trkpt lat="59.4837" lon="17.9235">
        <ele>35.531218</ele>
        <time>2020-10-12T12:09:51.396Z</time>
      </trkpt>
      <trkpt lat="59.48321" lon="17.91883">
        <ele>33.301127</ele>
        <time>2020-10-12T12:10:35.388Z</time>
      </trkpt>
      <trkpt lat="59.48125" lon="17.91879">
        <ele>33.099962</ele>
        <time>2020-10-12T12:11:49.381Z</time>
      </trkpt>
      <trkpt lat="59.47912" lon="17.91825">
        <ele>33.062801</ele>
        <time>2020-10-12T12:12:31.381Z</time>
      </trkpt>
      <trkpt lat="59.47695" lon="17.91739">
        <ele>33.328198</ele>
        <time>2020-10-12T12:13:30.388Z</time>
      </trkpt>
      <trkpt lat="59.4747" lon="17.91757">
        <ele>34.984621</ele>
        <time>2020-10-12T12:14:26.382Z</time>
      </trkpt>
      <trkpt lat="59.47273" lon="17.91778">
        <ele>40.659486</ele>
        <time>2020-10-12T12:16:08.379Z</time>
      </trkpt>
      <trkpt lat="59.4707" lon="17.9176">
        <ele>48.256565</ele>
        <time>2020-10-12T12:17:27.372Z</time>
      </trkpt>
      <trkpt lat="59.46872" lon="17.91903">
        <ele>51.132653</ele>
        <time>2020-10-12T12:19:11.401Z</time>
      </trkpt>
      <trkpt lat="59.46667" lon="17.9191">
        <ele>46.674924</ele>
        <time>2020-10-12T12:41:21.860Z</time>
      </trkpt>
      <trkpt lat="59.46474" lon="17.92075">
        <ele>38.984255</ele>
        <time>2020-10-12T12:42:07.878Z</time>
      </trkpt>
      <trkpt lat="59.46247" lon="17.92184">
        <ele>36.326817</ele>
        <time>2020-10-12T12:42:50.845Z</time>
      </trkpt>
      <trkpt lat="59.46029" lon="17.92218">
        <ele>38.095907</ele>
        <time>2020-10-12T12:43:46.844Z</time>
      </trkpt>
      <trkpt lat="59.45823" lon="17.923">
        <ele>47.022535</ele>
        <time>2020-10-12T12:44:42.835Z</time>
      </trkpt>
      <trkpt lat="59.45619" lon="17.92305">
        <ele>41.259997</ele>
        <time>2020-10-12T12:45:42.843Z</time>
      </trkpt>
      <trkpt lat="59.4539" lon="17.92451">
        <ele>38.639714</ele>
        <time>2020-10-12T12:46:38.839Z</time>
      </trkpt>
      <trkpt lat="59.45299" lon="17.92675">
        <ele>39.175092</ele>
        <time>2020-10-12T12:47:33.876Z</time>
      </trkpt>
      <trkpt lat="59.45197" lon="17.92989">
        <ele>29.586669</ele>
        <time>2020-10-12T12:48:24.843Z</time>
      </trkpt>
      <trkpt lat="59.45006" lon="17.9311">
        <ele>36.578366</ele>
        <time>2020-10-12T12:49:27.837Z</time>
      </trkpt>
      <trkpt lat="59.44914" lon="17.92808">
        <ele>46.299205</ele>
        <time>2020-10-12T12:50:50.845Z</time>
      </trkpt>
      <trkpt lat="59.44727" lon="17.92987">
        <ele>47.292612</ele>
        <time>2020-10-12T12:52:14.852Z</time>
      </trkpt>
      <trkpt lat="59.44554" lon="17.9321">
        <ele>56.727438</ele>
        <time>2020-10-12T12:54:02.851Z</time>
      </trkpt>
      <trkpt lat="59.44557" lon="17.93516">
        <ele>62.874599</ele>
        <time>2020-10-12T12:54:59.867Z</time>
      </trkpt>
      <trkpt lat="59.44518" lon="17.93872">
        <ele>52.553418</ele>
        <time>2020-10-12T12:55:50.856Z</time>
      </trkpt>
      <trkpt lat="59.44309" lon="17.94016">
        <ele>48.931017</ele>
        <time>2020-10-12T12:56:57.840Z</time>
      </trkpt>
      <trkpt lat="59.44335" lon="17.94453">
        <ele>46.286782</ele>
        <time>2020-10-12T12:57:52.865Z</time>
      </trkpt>
      <trkpt lat="59.44221" lon="17.94816">
        <ele>37.371175</ele>
        <time>2020-10-12T12:58:35.858Z</time>
      </trkpt>
      <trkpt lat="59.44116" lon="17.95161">
        <ele>38.089006</ele>
        <time>2020-10-12T12:59:45.847Z</time>
      </trkpt>
      <trkpt lat="59.44015" lon="17.95293">
        <ele>35.912901</ele>
        <time>2020-10-12T13:00:48.858Z</time>
      </trkpt>
      <trkpt lat="59.43811" lon="17.95469">
        <ele>38.385898</ele>
        <time>2020-10-12T13:01:55.845Z</time>
      </trkpt>
      <trkpt lat="59.43593" lon="17.9555">
        <ele>34.864549</ele>
        <time>2020-10-12T13:02:40.860Z</time>
      </trkpt>
      <trkpt lat="59.43382" lon="17.95642">
        <ele>34.580437</ele>
        <time>2020-10-12T13:03:29.846Z</time>
      </trkpt>
      <trkpt lat="59.43178" lon="17.95748">
        <ele>32.577758</ele>
        <time>2020-10-12T13:04:15.835Z</time>
      </trkpt>
      <trkpt lat="59.43" lon="17.95983">
        <ele>32.156704</ele>
        <time>2020-10-12T13:04:57.863Z</time>
      </trkpt>
      <trkpt lat="59.4285" lon="17.96154">
        <ele>36.035546</ele>
        <time>2020-10-12T13:05:47.858Z</time>
      </trkpt>
      <trkpt lat="59.42737" lon="17.9636">
        <ele>42.332464</ele>
        <time>2020-10-12T13:06:57.840Z</time>
      </trkpt>
      <trkpt lat="59.42595" lon="17.96691">
        <ele>47.668208</ele>
        <time>2020-10-12T13:08:10.848Z</time>
      </trkpt>
      <trkpt lat="59.4242" lon="17.96851">
        <ele>61.467729</ele>
        <time>2020-10-12T13:10:07.868Z</time>
      </trkpt>
      <trkpt lat="59.42232" lon="17.97082">
        <ele>59.674388</ele>
        <time>2020-10-12T13:11:19.848Z</time>
      </trkpt>
      <trkpt lat="59.42234" lon="17.97382">
        <ele>50.678319</ele>
        <time>2020-10-12T13:12:14.875Z</time>
      </trkpt>
      <trkpt lat="59.42203" lon="17.97771">
        <ele>38.141175</ele>
        <time>2020-10-12T13:12:55.922Z</time>
      </trkpt>
      <trkpt lat="59.42014" lon="17.9795">
        <ele>45.258913</ele>
        <time>2020-10-12T13:14:31.903Z</time>
      </trkpt>
      <trkpt lat="59.41881" lon="17.98281">
        <ele>46.188701</ele>
        <time>2020-10-12T13:15:26.846Z</time>
      </trkpt>
      <trkpt lat="59.41696" lon="17.98344">
        <ele>43.36427</ele>
        <time>2020-10-12T13:16:20.878Z</time>
      </trkpt>
      <trkpt lat="59.41554" lon="17.98182">
        <ele>40.775855</ele>
        <time>2020-10-12T13:17:14.887Z</time>
      </trkpt>
      <trkpt lat="59.41377" lon="17.98054">
        <ele>38.308953</ele>
        <time>2020-10-12T13:18:09.853Z</time>
      </trkpt>
      <trkpt lat="59.4118" lon="17.98128">
        <ele>52.455806</ele>
        <time>2020-10-12T13:19:25.850Z</time>
      </trkpt>
      <trkpt lat="59.4098" lon="17.98121">
        <ele>57.905657</ele>
        <time>2020-10-12T13:20:58.861Z</time>
      </trkpt>
      <trkpt lat="59.40901" lon="17.97786">
        <ele>59.359082</ele>
        <time>2020-10-12T13:22:20.868Z</time>
      </trkpt>
      <trkpt lat="59.40888" lon="17.97415">
        <ele>64.485964</ele>
        <time>2020-10-12T13:24:00.851Z</time>
      </trkpt>
      <trkpt lat="59.40709" lon="17.97513">
        <ele>68.605412</ele>
        <time>2020-10-12T13:25:04.842Z</time>
      </trkpt>
      <trkpt lat="59.40497" lon="17.97611">
        <ele>57.280688</ele>
        <time>2020-10-12T13:25:50.841Z</time>
      </trkpt>
      <trkpt lat="59.40318" lon="17.97404">
        <ele>54.900893</ele>
        <time>2020-10-12T13:26:40.867Z</time>
      </trkpt>
      <trkpt lat="59.4015" lon="17.97709">
        <ele>54.48826</ele>
        <time>2020-10-12T13:27:26.882Z</time>
      </trkpt>
      <trkpt lat="59.39997" lon="17.98032">
        <ele>53.634965</ele>
        <time>2020-10-12T13:28:06.851Z</time>
      </trkpt>
      <trkpt lat="59.39836" lon="17.98314">
        <ele>49.864294</ele>
        <time>2020-10-12T13:28:46.860Z</time>
      </trkpt>
      <trkpt lat="59.39627" lon="17.98544">
        <ele>46.515465</ele>
        <time>2020-10-12T13:29:28.854Z</time>
      </trkpt>
      <trkpt lat="59.3942" lon="17.98691">
        <ele>47.598156</ele>
        <time>2020-10-12T13:30:11.875Z</time>
      </trkpt>
      <trkpt lat="59.39221" lon="17.9896">
        <ele>42.264352</ele>
        <time>2020-10-12T13:30:52.856Z</time>
      </trkpt>
      <trkpt lat="59.39075" lon="17.9943">
        <ele>35.933024</ele>
        <time>2020-10-12T13:31:32.842Z</time>
      </trkpt>
      <trkpt lat="59.38924" lon="17.99751">
        <ele>49.643111</ele>
        <time>2020-10-12T13:32:40.869Z</time>
      </trkpt>
      <trkpt lat="59.38754" lon="17.99845">
        <ele>54.236271</ele>
        <time>2020-10-12T13:34:12.848Z</time>
      </trkpt>
      <trkpt lat="59.38546" lon="17.9978">
        <ele>41.789467</ele>
        <time>2020-10-12T13:34:57.851Z</time>
      </trkpt>
      <trkpt lat="59.38336" lon="17.99853">
        <ele>36.855958</ele>
        <time>2020-10-12T13:35:38.857Z</time>
      </trkpt>
      <trkpt lat="59.38171" lon="18.00112">
        <ele>42.606922</ele>
        <time>2020-10-12T13:36:23.846Z</time>
      </trkpt>
      <trkpt lat="59.37981" lon="18.00201">
        <ele>44.024928</ele>
        <time>2020-10-12T13:37:39.863Z</time>
      </trkpt>
      <trkpt lat="59.37918" lon="18.006">
        <ele>38.17228</ele>
        <time>2020-10-12T13:38:30.847Z</time>
      </trkpt>
      <trkpt lat="59.37733" lon="18.00866">
        <ele>44.208397</ele>
        <time>2020-10-12T13:39:21.862Z</time>
      </trkpt>
      <trkpt lat="59.3773" lon="18.01186">
        <ele>43.15967</ele>
        <time>2020-10-12T13:40:15.845Z</time>
      </trkpt>
      <trkpt lat="59.37635" lon="18.01557">
        <ele>34.08662</ele>
        <time>2020-10-12T13:41:41.873Z</time>
      </trkpt>
      <trkpt lat="59.37486" lon="18.01801">
        <ele>36.780755</ele>
        <time>2020-10-12T13:42:23.855Z</time>
      </trkpt>
      <trkpt lat="59.37353" lon="18.02084">
        <ele>40.006024</ele>
        <time>2020-10-12T13:43:49.907Z</time>
      </trkpt>
      <trkpt lat="59.37176" lon="18.02055">
        <ele>43.431722</ele>
        <time>2020-10-12T13:45:09.838Z</time>
      </trkpt>
      <trkpt lat="59.36994" lon="18.02109">
        <ele>41.188113</ele>
        <time>2020-10-12T13:46:11.865Z</time>
      </trkpt>
      <trkpt lat="59.36795" lon="18.0213">
        <ele>51.129605</ele>
        <time>2020-10-12T13:47:37.859Z</time>
      </trkpt>
      <trkpt lat="59.36603" lon="18.02155">
        <ele>66.262176</ele>
        <time>2020-10-12T13:49:26.852Z</time>
      </trkpt>
      <trkpt lat="59.36456" lon="18.02444">
        <ele>64.042402</ele>
        <time>2020-10-12T13:50:21.846Z</time>
      </trkpt>
      <trkpt lat="59.36296" lon="18.02654">
        <ele>54.918084</ele>
        <time>2020-10-12T13:51:11.882Z</time>
      </trkpt>
      <trkpt lat="59.36051" lon="18.02776">
        <ele>51.235251</ele>
        <time>2020-10-12T13:51:59.863Z</time>
      </trkpt>
      <trkpt lat="59.3583" lon="18.02924">
        <ele>45.240648</ele>
        <time>2020-10-12T13:52:47.841Z</time>
      </trkpt>
      <trkpt lat="59.35695" lon="18.03163">
        <ele>53.225372</ele>
        <time>2020-10-12T13:54:03.879Z</time>
      </trkpt>
      <trkpt lat="59.35526" lon="18.03448">
        <ele>49.329678</ele>
        <time>2020-10-12T13:54:46.859Z</time>
      </trkpt>
      <trkpt lat="59.35482" lon="18.03795">
        <ele>37.847022</ele>
        <time>2020-10-12T13:55:32.856Z</time>
      </trkpt>
      <trkpt lat="59.35372" lon="18.04071">
        <ele>35.443243</ele>
        <time>2020-10-12T13:57:13.878Z</time>
      </trkpt>
      <trkpt lat="59.35186" lon="18.04222">
        <ele>35.388771</ele>
        <time>2020-10-12T13:58:03.858Z</time>
      </trkpt>
      <trkpt lat="59.35037" lon="18.04485">
        <ele>41.475356</ele>
        <time>2020-10-12T13:59:22.861Z</time>
      </trkpt>
      <trkpt lat="59.35046" lon="18.04912">
        <ele>55.475672</ele>
        <time>2020-10-12T14:00:24.877Z</time>
      </trkpt>
      <trkpt lat="59.3486" lon="18.05106">
        <ele>47.964885</ele>
        <time>2020-10-12T14:01:50.847Z</time>
      </trkpt>
      <trkpt lat="59.3466" lon="18.05296">
        <ele>52.280444</ele>
        <time>2020-10-12T14:03:29.843Z</time>
      </trkpt>
      <trkpt lat="59.34469" lon="18.05511">
        <ele>65.924419</ele>
        <time>2020-10-12T14:05:32.858Z</time>
      </trkpt>
      <trkpt lat="59.34263" lon="18.0567">
        <ele>47.454886</ele>
        <time>2020-10-12T14:06:22.885Z</time>
      </trkpt>
      <trkpt lat="59.3408" lon="18.05888">
        <ele>51.914637</ele>
        <time>2020-10-12T14:07:08.870Z</time>
      </trkpt>
      <trkpt lat="59.33875" lon="18.06075">
        <ele>66.075498</ele>
        <time>2020-10-12T14:07:57.866Z</time>
      </trkpt>
      <trkpt lat="59.33675" lon="18.06274">
        <ele>64.559459</ele>
        <time>2020-10-12T14:08:58.852Z</time>
      </trkpt>
    </trkseg>
  </trk>
</gpx>